createdAt,value
2018-11-07T00:01:20.984Z,7.48
2018-11-07T00:03:50.569Z,7.42
2018-11-07T00:06:19.975Z,7.46
2018-11-07T00:08:49.350Z,7.52
2018-11-07T00:11:18.905Z,7.48
2018-11-07T00:13:48.380Z,7.50
2018-11-07T00:16:17.714Z,7.45
2018-11-07T00:18:47.113Z,7.47
2018-11-07T00:21:16.429Z,7.46
2018-11-07T00:23:45.778Z,7.42
2018-11-07T00:26:15.182Z,7.54
2018-11-07T00:28:44.661Z,7.50
2018-11-07T00:31:14.008Z,7.62
2018-11-07T00:33:43.405Z,7.59
2018-11-07T00:36:12.761Z,7.66
2018-11-07T00:38:42.097Z,7.55
2018-11-07T00:41:11.746Z,7.63
2018-11-07T00:43:42.120Z,7.61
2018-11-07T00:46:11.552Z,7.90
2018-11-07T00:48:41.013Z,7.77
2018-11-07T00:51:10.479Z,7.82
2018-11-07T00:53:40.213Z,7.80
2018-11-07T00:56:09.577Z,7.64
2018-11-07T00:58:38.929Z,7.57
2018-11-07T01:01:08.667Z,7.60
2018-11-07T01:03:37.951Z,7.51
2018-11-07T01:06:07.667Z,7.39
2018-11-07T01:08:37.024Z,7.32
2018-11-07T01:11:06.735Z,7.24
2018-11-07T01:13:36.967Z,7.17
2018-11-07T01:16:06.531Z,7.25
2018-11-07T01:18:35.926Z,7.10
2018-11-07T01:21:05.526Z,7.07
2018-11-07T01:23:35.061Z,7.05
2018-11-07T01:26:04.389Z,7.05
2018-11-07T01:28:33.765Z,7.09
2018-11-07T01:31:03.534Z,7.07
2018-11-07T01:33:32.855Z,7.14
2018-11-07T01:36:02.391Z,7.06
2018-11-07T01:38:31.680Z,7.09
2018-11-07T01:41:01.177Z,7.04
2018-11-07T01:43:30.541Z,7.06
2018-11-07T01:45:59.927Z,6.92
2018-11-07T01:48:29.641Z,6.89
2018-11-07T01:50:58.965Z,6.88
2018-11-07T01:53:28.444Z,6.92
2018-11-07T01:55:57.771Z,6.91
2018-11-07T01:58:27.358Z,6.78
2018-11-07T02:00:57.563Z,6.80
2018-11-07T02:03:27.043Z,6.91
2018-11-07T02:05:56.372Z,6.88
2018-11-07T02:08:31.165Z,6.71
2018-11-07T02:11:01.366Z,6.60
2018-11-07T02:13:30.791Z,6.57
2018-11-07T02:16:00.127Z,6.51
2018-11-07T02:18:29.496Z,6.55
2018-11-07T02:20:59.025Z,6.57
2018-11-07T02:23:28.696Z,6.67
2018-11-07T02:25:58.067Z,6.47
2018-11-07T02:28:28.529Z,6.40
2018-11-07T02:30:58.122Z,6.39
2018-11-07T02:33:27.544Z,6.35
2018-11-07T02:35:57.100Z,6.31
2018-11-07T02:38:26.532Z,6.40
2018-11-07T02:40:55.929Z,6.32
2018-11-07T02:43:25.363Z,6.39
2018-11-07T02:45:54.943Z,6.46
2018-11-07T02:48:24.359Z,6.28
2018-11-07T02:50:53.876Z,6.16
2018-11-07T02:53:23.244Z,6.32
2018-11-07T02:55:52.689Z,6.45
2018-11-07T02:58:22.103Z,6.52
2018-11-07T03:00:51.455Z,6.50
2018-11-07T03:03:20.827Z,6.51
2018-11-07T03:05:50.207Z,6.48
2018-11-07T03:08:19.615Z,6.47
2018-11-07T03:10:49.073Z,6.43
2018-11-07T03:13:18.349Z,6.43
2018-11-07T03:15:47.732Z,6.26
2018-11-07T03:18:17.152Z,6.33
2018-11-07T03:20:46.491Z,6.43
2018-11-07T03:23:15.937Z,6.31
2018-11-07T03:25:45.293Z,6.27
2018-11-07T03:28:14.986Z,6.26
2018-11-07T03:30:44.335Z,6.18
2018-11-07T03:33:13.673Z,6.20
2018-11-07T03:35:42.992Z,6.13
2018-11-07T03:38:15.215Z,6.06
2018-11-07T03:40:44.550Z,5.99
2018-11-07T03:43:15.038Z,5.96
2018-11-07T03:45:49.303Z,6.12
2018-11-07T03:48:18.655Z,5.98
2018-11-07T03:50:48.384Z,5.96
2018-11-07T03:53:17.855Z,5.84
2018-11-07T03:55:47.179Z,5.82
2018-11-07T03:58:16.618Z,5.87
2018-11-07T04:00:46.619Z,5.80
2018-11-07T04:03:16.062Z,5.71
2018-11-07T04:05:45.487Z,5.66
2018-11-07T04:08:14.883Z,5.54
2018-11-07T04:10:44.260Z,5.62
2018-11-07T04:13:13.673Z,5.53
2018-11-07T04:15:43.137Z,5.51
2018-11-07T04:18:12.508Z,5.47
2018-11-07T04:20:41.882Z,5.46
2018-11-07T04:23:11.253Z,5.45
2018-11-07T04:25:40.591Z,5.34
2018-11-07T04:28:10.049Z,5.28
2018-11-07T04:30:39.369Z,5.24
2018-11-07T04:33:08.677Z,5.14
2018-11-07T04:35:38.155Z,5.26
2018-11-07T04:38:07.590Z,5.22
2018-11-07T04:40:37.183Z,5.12
2018-11-07T04:43:07.096Z,5.23
2018-11-07T04:45:36.447Z,5.34
2018-11-07T04:48:06.251Z,5.25
2018-11-07T04:50:35.557Z,5.17
2018-11-07T04:53:04.949Z,5.20
2018-11-07T04:55:34.291Z,5.16
2018-11-07T04:58:03.556Z,5.01
2018-11-07T05:00:32.922Z,5.07
2018-11-07T05:03:02.361Z,4.98
2018-11-07T05:05:31.735Z,5.04
2018-11-07T05:08:01.344Z,4.96
2018-11-07T05:10:30.744Z,5.03
2018-11-07T05:13:00.066Z,4.99
2018-11-07T05:15:29.373Z,5.04
2018-11-07T05:17:58.722Z,5.15
2018-11-07T05:20:28.146Z,5.10
2018-11-07T05:22:57.456Z,5.10
2018-11-07T05:25:26.835Z,5.17
2018-11-07T05:27:56.370Z,5.26
2018-11-07T05:30:25.821Z,5.32
2018-11-07T05:32:55.183Z,5.30
2018-11-07T05:35:24.769Z,5.39
2018-11-07T05:37:54.162Z,5.49
2018-11-07T05:40:23.518Z,5.67
2018-11-07T05:42:53.186Z,5.81
2018-11-07T05:45:22.706Z,5.89
2018-11-07T05:47:52.057Z,6.07
2018-11-07T05:50:21.496Z,6.16
2018-11-07T05:52:50.960Z,6.38
2018-11-07T05:55:20.559Z,6.53
2018-11-07T05:57:49.955Z,6.54
2018-11-07T06:00:19.564Z,6.70
2018-11-07T06:02:49.144Z,6.81
2018-11-07T06:05:18.558Z,6.95
2018-11-07T06:07:48.194Z,7.06
2018-11-07T06:10:17.563Z,7.34
2018-11-07T06:12:46.980Z,7.81
2018-11-07T06:15:16.560Z,8.47
2018-11-07T06:17:45.944Z,9.42
2018-11-07T06:20:15.400Z,10.30
2018-11-07T06:23:47.565Z,10.96
2018-11-07T06:26:16.931Z,11.53
2018-11-07T06:28:46.337Z,12.19
2018-11-07T06:31:15.953Z,12.16
2018-11-07T06:33:45.541Z,12.50
2018-11-07T06:36:14.922Z,12.96
2018-11-07T06:38:44.371Z,12.85
2018-11-07T06:41:13.852Z,13.35
2018-11-07T06:43:43.228Z,14.10
2018-11-07T06:46:12.912Z,14.07
2018-11-07T06:48:42.494Z,14.18
2018-11-07T06:51:11.973Z,14.45
2018-11-07T06:53:41.329Z,14.25
2018-11-07T06:56:10.743Z,14.50
2018-11-07T06:58:40.132Z,14.53
2018-11-07T07:01:09.657Z,14.84
2018-11-07T07:03:39.261Z,15.46
2018-11-07T07:06:08.854Z,16.16
2018-11-07T07:08:38.181Z,16.68
2018-11-07T07:11:08.466Z,16.50
2018-11-07T07:13:38.241Z,16.45
2018-11-07T07:16:07.618Z,16.25
2018-11-07T07:18:37.232Z,16.54
2018-11-07T07:21:06.988Z,17.06
2018-11-07T07:23:36.546Z,17.39
2018-11-07T07:26:05.948Z,17.92
2018-11-07T07:28:35.444Z,17.24
2018-11-07T07:31:04.745Z,17.50
2018-11-07T07:33:34.353Z,16.94
2018-11-07T07:36:03.779Z,17.78
2018-11-07T07:38:33.185Z,18.17
2018-11-07T07:41:02.505Z,16.97
2018-11-07T07:43:31.871Z,17.09
2018-11-07T07:46:01.246Z,17.06
2018-11-07T07:48:30.871Z,18.36
2018-11-07T07:51:00.575Z,18.16
2018-11-07T07:53:29.943Z,18.32
2018-11-07T07:55:59.603Z,18.31
2018-11-07T07:58:29.069Z,18.76
2018-11-07T08:00:58.488Z,17.66
2018-11-07T08:03:27.997Z,19.04
2018-11-07T08:05:57.422Z,19.99
2018-11-07T08:08:26.858Z,19.04
2018-11-07T08:10:56.368Z,19.99
2018-11-07T08:13:25.832Z,20.38
2018-11-07T08:15:55.271Z,21.01
2018-11-07T08:18:24.688Z,20.53
2018-11-07T08:20:54.033Z,20.36
2018-11-07T08:23:23.485Z,19.84
2018-11-07T08:25:52.895Z,20.81
2018-11-07T08:28:22.371Z,20.45
2018-11-07T08:30:51.826Z,19.98
2018-11-07T08:33:21.202Z,20.37
2018-11-07T08:35:50.615Z,20.06
2018-11-07T08:38:20.069Z,21.04
2018-11-07T08:40:49.544Z,20.96
2018-11-07T08:43:18.972Z,20.62
2018-11-07T08:45:48.330Z,20.38
2018-11-07T08:48:17.786Z,20.67
2018-11-07T08:50:47.163Z,21.11
2018-11-07T08:53:16.809Z,21.44
2018-11-07T08:55:46.298Z,21.64
2018-11-07T08:58:15.741Z,21.21
2018-11-07T09:00:45.126Z,21.94
2018-11-07T09:03:14.833Z,22.94
2018-11-07T09:05:44.244Z,22.70
2018-11-07T09:08:13.560Z,21.57
2018-11-07T09:10:43.003Z,21.50
2018-11-07T09:13:12.375Z,21.36
2018-11-07T09:15:41.796Z,22.15
2018-11-07T09:18:11.190Z,22.61
2018-11-07T09:20:40.562Z,22.89
2018-11-07T09:23:09.971Z,22.85
2018-11-07T09:25:39.887Z,22.81
2018-11-07T09:28:09.880Z,23.18
2018-11-07T09:30:39.551Z,22.96
2018-11-07T09:33:09.123Z,23.64
2018-11-07T09:35:38.992Z,23.42
2018-11-07T09:38:08.600Z,23.62
2018-11-07T09:40:38.264Z,22.99
2018-11-07T09:43:07.979Z,22.92
2018-11-07T09:45:37.641Z,25.00
2018-11-07T09:48:07.387Z,24.08
2018-11-07T09:50:36.910Z,23.84
2018-11-07T09:53:06.583Z,23.59
2018-11-07T09:55:36.243Z,23.48
2018-11-07T09:58:05.880Z,23.37
2018-11-07T10:00:35.414Z,22.86
2018-11-07T10:03:05.174Z,23.06
2018-11-07T10:05:35.257Z,23.07
2018-11-07T10:08:04.928Z,22.94
2018-11-07T10:10:34.722Z,23.04
2018-11-07T10:13:04.558Z,23.13
2018-11-07T10:15:34.238Z,23.10
2018-11-07T10:18:03.796Z,23.19
2018-11-07T10:20:33.519Z,23.43
2018-11-07T10:23:03.112Z,23.47
2018-11-07T10:25:32.862Z,23.19
2018-11-07T10:28:05.029Z,24.30
2018-11-07T10:30:34.185Z,24.50
2018-11-07T10:33:03.838Z,24.11
2018-11-07T10:35:33.435Z,23.49
2018-11-07T10:38:03.072Z,23.51
2018-11-07T10:40:32.731Z,22.90
2018-11-07T10:43:02.326Z,22.46
2018-11-07T10:45:32.068Z,22.23
2018-11-07T10:48:01.536Z,22.51
2018-11-07T10:50:31.183Z,22.78
2018-11-07T10:55:29.261Z,22.81
2018-11-07T10:57:58.970Z,23.26
2018-11-07T11:00:33.460Z,22.35
2018-11-07T11:03:10.092Z,22.10
2018-11-07T11:05:40.481Z,22.17
2018-11-07T11:08:10.433Z,22.28
2018-11-07T11:10:40.296Z,22.20
2018-11-07T11:13:09.884Z,23.69
2018-11-07T11:15:39.482Z,24.28
2018-11-07T11:18:09.166Z,23.76
2018-11-07T11:20:38.816Z,24.70
2018-11-07T11:23:08.609Z,24.17
2018-11-07T11:25:38.257Z,24.46
2018-11-07T11:28:07.902Z,23.48
2018-11-07T11:30:37.627Z,24.26
2018-11-07T11:33:07.861Z,24.96
2018-11-07T11:35:37.926Z,24.29
2018-11-07T11:38:07.910Z,24.36
2018-11-07T11:40:37.638Z,23.88
2018-11-07T11:43:07.362Z,24.13
2018-11-07T11:45:37.498Z,23.81
2018-11-07T11:48:07.289Z,23.93
2018-11-07T11:50:36.929Z,23.40
2018-11-07T11:53:06.535Z,23.78
2018-11-07T11:55:36.177Z,23.96
2018-11-07T11:58:05.976Z,22.92
2018-11-07T12:00:35.645Z,22.71
2018-11-07T12:03:05.514Z,22.37
2018-11-07T12:05:35.070Z,23.00
2018-11-07T12:08:04.903Z,23.15
2018-11-07T12:10:34.491Z,21.78
2018-11-07T12:13:04.265Z,21.64
2018-11-07T12:15:33.895Z,21.87
2018-11-07T12:18:03.751Z,22.00
2018-11-07T12:20:33.636Z,20.96
2018-11-07T12:23:03.433Z,20.40
2018-11-07T12:25:33.065Z,20.18
2018-11-07T12:28:02.814Z,20.00
2018-11-07T12:30:32.331Z,19.97
2018-11-07T12:33:02.543Z,19.94
2018-11-07T12:35:32.095Z,19.86
2018-11-07T12:38:01.844Z,19.66
2018-11-07T12:40:31.595Z,19.75
2018-11-07T12:43:01.380Z,19.55
2018-11-07T12:45:31.046Z,19.41
2018-11-07T12:48:01.504Z,19.76
2018-11-07T12:50:31.223Z,19.60
2018-11-07T12:53:00.866Z,19.25
2018-11-07T12:55:30.627Z,19.45
2018-11-07T12:58:00.342Z,19.64
2018-11-07T13:00:29.879Z,19.66
2018-11-07T13:02:59.499Z,19.31
2018-11-07T13:05:29.252Z,19.23
2018-11-07T13:07:59.259Z,19.37
2018-11-07T13:10:29.041Z,19.43
2018-11-07T13:12:59.072Z,19.39
2018-11-07T13:15:28.917Z,19.22
2018-11-07T13:17:58.601Z,19.33
2018-11-07T13:20:28.432Z,19.24
2018-11-07T13:22:59.078Z,19.37
2018-11-07T13:25:28.697Z,19.02
2018-11-07T13:27:58.501Z,18.92
2018-11-07T13:30:28.264Z,18.91
2018-11-07T13:32:58.197Z,18.88
2018-11-07T13:35:27.995Z,18.81
2018-11-07T13:37:58.113Z,18.74
2018-11-07T13:40:27.743Z,18.59
2018-11-07T13:42:58.088Z,18.73
2018-11-07T13:45:28.093Z,18.64
2018-11-07T13:47:59.063Z,18.62
2018-11-07T13:50:28.691Z,18.71
2018-11-07T13:52:58.443Z,18.64
2018-11-07T13:55:28.935Z,18.49
2018-11-07T13:57:58.837Z,18.46
2018-11-07T14:00:28.553Z,18.58
2018-11-07T14:02:59.069Z,18.59
2018-11-07T14:05:29.080Z,18.67
2018-11-07T14:07:58.796Z,18.58
2018-11-07T14:10:28.739Z,18.51
2018-11-07T14:12:58.520Z,18.39
2018-11-07T14:15:28.258Z,18.50
2018-11-07T14:17:58.148Z,18.18
2018-11-07T14:20:27.861Z,18.21
2018-11-07T14:22:57.559Z,18.02
2018-11-07T14:25:27.142Z,18.02
2018-11-07T14:27:57.097Z,17.94
2018-11-07T14:30:26.653Z,17.78
2018-11-07T14:33:00.022Z,17.60
2018-11-07T14:35:29.571Z,17.61
2018-11-07T14:37:59.533Z,17.46
2018-11-07T14:40:29.219Z,17.36
2018-11-07T14:42:59.172Z,17.31
2018-11-07T14:45:28.820Z,17.20
2018-11-07T14:47:58.666Z,17.06
2018-11-07T14:50:28.263Z,17.02
2018-11-07T14:52:57.979Z,16.85
2018-11-07T14:55:27.737Z,16.75
2018-11-07T14:57:57.229Z,16.73
2018-11-07T15:00:26.960Z,16.67
2018-11-07T15:02:56.782Z,16.60
2018-11-07T15:05:26.637Z,16.44
2018-11-07T15:07:56.260Z,16.38
2018-11-07T15:10:26.096Z,16.34
2018-11-07T15:12:55.914Z,16.17
2018-11-07T15:15:25.548Z,16.05
2018-11-07T15:17:55.255Z,15.92
2018-11-07T15:20:24.987Z,15.61
2018-11-07T15:22:54.803Z,15.58
2018-11-07T15:25:24.592Z,15.46
2018-11-07T15:27:54.348Z,15.31
2018-11-07T15:30:24.049Z,15.29
2018-11-07T15:32:53.760Z,15.28
2018-11-07T15:35:23.581Z,15.21
2018-11-07T15:37:53.486Z,14.92
2018-11-07T15:40:23.293Z,15.07
2018-11-07T15:42:53.105Z,15.30
2018-11-07T15:45:22.878Z,15.19
2018-11-07T15:47:52.565Z,15.15
2018-11-07T15:50:27.318Z,15.00
2018-11-07T15:52:57.148Z,14.87
2018-11-07T15:55:26.981Z,14.91
2018-11-07T15:57:56.529Z,14.81
2018-11-07T16:00:26.104Z,14.36
2018-11-07T16:02:55.887Z,14.62
2018-11-07T16:05:25.692Z,14.63
2018-11-07T16:07:55.477Z,14.52
2018-11-07T16:10:25.318Z,14.27
2018-11-07T16:12:54.904Z,14.32
2018-11-07T16:15:24.667Z,14.31
2018-11-07T16:17:54.470Z,14.10
2018-11-07T16:20:24.270Z,14.43
2018-11-07T16:22:54.008Z,14.49
2018-11-07T16:25:23.782Z,14.51
2018-11-07T16:27:53.310Z,14.44
2018-11-07T16:30:23.472Z,14.38
2018-11-07T16:32:53.228Z,14.49
2018-11-07T16:35:23.038Z,14.37
2018-11-07T16:37:52.938Z,14.33
2018-11-07T16:40:22.649Z,14.35
2018-11-07T16:42:52.483Z,14.51
2018-11-07T16:45:22.290Z,14.26
2018-11-07T16:47:52.079Z,14.01
2018-11-07T16:50:21.891Z,14.01
2018-11-07T16:52:51.574Z,13.89
2018-11-07T16:55:21.431Z,13.73
2018-11-07T16:57:51.078Z,13.73
2018-11-07T17:00:21.621Z,13.60
2018-11-07T17:02:51.792Z,13.50
2018-11-07T17:05:21.610Z,13.41
2018-11-07T17:07:51.420Z,13.57
2018-11-07T17:10:21.109Z,13.71
2018-11-07T17:12:50.827Z,13.62
2018-11-07T17:15:20.502Z,13.49
2018-11-07T17:17:50.712Z,13.40
2018-11-07T17:20:20.889Z,13.37
2018-11-07T17:22:50.598Z,13.26
2018-11-07T17:25:21.445Z,13.28
2018-11-07T17:27:51.165Z,13.34
2018-11-07T17:30:21.025Z,13.29
2018-11-07T17:32:50.912Z,13.27
2018-11-07T17:35:20.563Z,13.37
2018-11-07T17:37:50.480Z,13.21
2018-11-07T17:40:21.653Z,12.89
2018-11-07T17:42:51.923Z,12.87
2018-11-07T17:45:22.633Z,12.66
2018-11-07T17:47:53.003Z,12.67
2018-11-07T17:50:23.479Z,12.69
2018-11-07T17:52:53.561Z,12.67
2018-11-07T17:55:23.636Z,12.57
2018-11-07T17:57:54.429Z,12.62
2018-11-07T18:00:35.122Z,12.51
2018-11-07T18:03:04.776Z,12.51
2018-11-07T18:05:34.773Z,12.59
2018-11-07T18:08:04.524Z,12.62
2018-11-07T18:10:35.360Z,12.61
2018-11-07T18:13:05.118Z,12.79
2018-11-07T18:15:35.058Z,12.76
2018-11-07T18:18:04.937Z,12.35
2018-11-07T18:20:34.563Z,12.30
2018-11-07T18:23:04.250Z,12.24
2018-11-07T18:25:33.733Z,12.22
2018-11-07T18:28:03.596Z,12.21
2018-11-07T18:30:34.445Z,12.16
2018-11-07T18:33:04.039Z,12.20
2018-11-07T18:35:33.589Z,12.29
2018-11-07T18:38:03.422Z,12.24
2018-11-07T18:40:33.342Z,12.15
2018-11-07T18:43:02.933Z,12.07
2018-11-07T18:45:32.472Z,11.99
2018-11-07T18:48:02.188Z,11.96
2018-11-07T18:50:31.899Z,11.99
2018-11-07T18:53:01.889Z,11.92
2018-11-07T18:55:31.730Z,11.85
2018-11-07T18:58:01.323Z,11.97
2018-11-07T19:00:31.235Z,11.85
2018-11-07T19:03:01.032Z,11.81
2018-11-07T19:05:30.934Z,11.83
2018-11-07T19:08:00.641Z,12.07
2018-11-07T19:10:30.303Z,11.99
2018-11-07T19:13:00.164Z,12.00
2018-11-07T19:15:29.668Z,11.98
2018-11-07T19:17:59.522Z,11.82
2018-11-07T19:20:29.293Z,11.81
2018-11-07T19:22:58.873Z,11.80
2018-11-07T19:25:28.655Z,11.84
2018-11-07T19:27:58.525Z,11.93
2018-11-07T19:30:28.634Z,12.04
2018-11-07T19:32:58.400Z,12.01
2018-11-07T19:35:28.037Z,11.87
2018-11-07T19:37:57.872Z,11.87
2018-11-07T19:40:27.607Z,12.05
2018-11-07T19:42:57.500Z,11.87
2018-11-07T19:45:27.407Z,11.85
2018-11-07T19:47:57.014Z,11.86
2018-11-07T19:50:26.949Z,11.76
2018-11-07T19:52:56.857Z,11.69
2018-11-07T19:55:26.700Z,11.62
2018-11-07T19:58:00.165Z,11.64
2018-11-07T20:00:30.625Z,11.61
2018-11-07T20:03:00.309Z,11.46
2018-11-07T20:05:30.047Z,11.39
2018-11-07T20:08:00.163Z,11.37
2018-11-07T20:10:30.980Z,11.33
2018-11-07T20:13:00.579Z,11.26
2018-11-07T20:15:30.281Z,11.22
2018-11-07T20:18:00.281Z,11.25
2018-11-07T20:20:30.415Z,11.20
2018-11-07T20:23:00.376Z,11.44
2018-11-07T20:25:30.534Z,11.42
2018-11-07T20:28:00.372Z,11.55
2018-11-07T20:30:30.988Z,11.40
2018-11-07T20:33:00.903Z,11.34
2018-11-07T20:35:30.824Z,11.11
2018-11-07T20:38:00.655Z,11.16
2018-11-07T20:40:31.378Z,10.96
2018-11-07T20:43:01.150Z,10.88
2018-11-07T20:48:51.890Z,10.81
2018-11-07T20:51:21.652Z,10.64
2018-11-07T20:53:51.683Z,10.63
2018-11-07T20:56:21.455Z,10.60
2018-11-07T20:58:51.464Z,10.55
2018-11-07T21:01:21.569Z,10.43
2018-11-07T21:03:51.550Z,10.49
2018-11-07T21:06:21.376Z,10.44
2018-11-07T21:08:51.547Z,10.38
2018-11-07T21:11:21.282Z,10.45
2018-11-07T21:13:51.308Z,10.31
2018-11-07T21:16:21.254Z,10.48
2018-11-07T21:18:51.064Z,10.64
2018-11-07T21:21:21.092Z,10.51
2018-11-07T21:23:51.022Z,10.57
2018-11-07T21:26:20.940Z,10.39
2018-11-07T21:28:50.707Z,10.33
2018-11-07T21:31:20.821Z,10.25
2018-11-07T21:33:50.489Z,10.09
2018-11-07T21:36:20.450Z,9.99
2018-11-07T21:38:50.449Z,9.84
2018-11-07T21:41:20.435Z,9.73
2018-11-07T21:43:50.204Z,9.74
2018-11-07T21:46:19.928Z,9.63
2018-11-07T21:48:50.236Z,9.65
2018-11-07T21:51:20.013Z,9.69
2018-11-07T21:53:49.830Z,9.72
2018-11-07T21:56:19.838Z,9.67
2018-11-07T21:58:49.659Z,9.67
2018-11-07T22:01:20.668Z,9.64
2018-11-07T22:03:51.254Z,9.55
2018-11-07T22:06:21.301Z,9.59
2018-11-07T22:08:51.196Z,9.52
2018-11-07T22:11:20.964Z,9.46
2018-11-07T22:13:50.865Z,9.44
2018-11-07T22:16:20.729Z,9.38
2018-11-07T22:18:50.421Z,9.33
2018-11-07T22:21:20.376Z,9.27
2018-11-07T22:23:50.261Z,9.33
2018-11-07T22:26:20.669Z,9.27
2018-11-07T22:28:50.317Z,9.22
2018-11-07T22:31:20.334Z,9.17
2018-11-07T22:33:50.247Z,9.10
2018-11-07T22:36:21.436Z,9.05
2018-11-07T22:38:52.185Z,9.10
2018-11-07T22:41:22.102Z,9.11
2018-11-07T22:43:52.065Z,9.07
2018-11-07T22:46:22.133Z,9.12
2018-11-07T22:48:52.142Z,8.99
2018-11-07T22:51:21.774Z,8.91
2018-11-07T22:53:51.636Z,8.84
2018-11-07T22:56:21.541Z,8.88
2018-11-07T22:58:51.247Z,8.75
2018-11-07T23:01:24.166Z,8.96
2018-11-07T23:03:54.217Z,9.03
2018-11-07T23:06:25.043Z,8.90
2018-11-07T23:08:54.995Z,8.91
2018-11-07T23:11:24.670Z,8.87
2018-11-07T23:13:54.379Z,8.71
2018-11-07T23:16:24.240Z,8.68
2018-11-07T23:18:54.011Z,8.71
2018-11-07T23:21:23.672Z,8.69
2018-11-07T23:23:53.762Z,8.53
2018-11-07T23:26:23.481Z,8.51
2018-11-07T23:28:53.181Z,8.56
2018-11-07T23:31:23.278Z,8.56
2018-11-07T23:33:52.983Z,8.50
2018-11-07T23:36:50.824Z,8.60
2018-11-07T23:39:21.263Z,8.47
2018-11-07T23:41:51.596Z,8.47
2018-11-07T23:44:21.336Z,8.43
2018-11-07T23:46:51.508Z,8.32
2018-11-07T23:49:21.074Z,8.33
2018-11-07T23:51:51.446Z,8.24
2018-11-07T23:54:22.553Z,8.23
2018-11-07T23:56:53.290Z,8.14
2018-11-07T23:59:23.054Z,8.21
